Glacier Bay National Park, AK

6:56 PM AKDT on September 01, 2014 (GMT -0800)
Gustavus | Change Station
CLOSE
Current Station
Airport
Location: Gustavus,
Elevation: 30 ft
Nearby Weather Stations

Elev 30 ft 58.43 °N, 135.71 °W | Updated -126 second ago

Overcast
Overcast
55 °F
Feels Like 55 °F
N
0
Wind Variable Wind from North

Today
High -- | Low -- °F
--% Chance of Precip.
Yesterday
High -- | Low -- °F
Precip. -- in
6:06 AM 8:07 PM
Waxing Crescent, 46% visible
Pressure 29.84 in
Visibility 10.0 miles
Clouds Overcast 2800 ft
Dew Point 48 °F
Humidity 77%
Rainfall 0.00 in
Snow Depth Not available.
UV 0 out of 12
Pollen Not available.
Air Quality Not available.
Flu Activity Not available.
METAR PAGS 020259Z AUTO 00000KT 10SM OVC028 13/09 A2984 RMK VIA PHONE

More Conditions Fewer Conditions

Pressure 29.84 in
Visibility 10.0 miles
Clouds Overcast 2800 ft
Dew Point 48 °F
Humidity 77%
Rainfall 0.00 in
Snow Depth Not available.
UV 0 out of 12
Pollen Not available.
Air Quality Not available.
Flu Activity Not available.
METAR PAGS 020259Z AUTO 00000KT 10SM OVC028 13/09 A2984 RMK VIA PHONE

More Conditions Fewer Conditions

10-Day Weather Forecast

Almanac

Astronomy

Sep. 01, 2014 Rise Set
Actual Time 6:06 AM AKDT 8:07 PM AKDT
Civil Twilight 5:23 AM AKDT 8:50 PM AKDT
Nautical Twilight 4:27 AM AKDT 9:45 PM AKDT
Astronomical Twilight 3:18 AM AKDT 10:53 PM AKDT
Moon 2:35 PM AKDT (9/1) 10:38 PM AKDT (9/1)
Length of Visible Light 15h 27m
Length of Day
14h 01m
Tomorrow will be 5m 6s shorter.
Waxing Crescent, 46% of the Moon is Illuminated
Today
Waxing Crescent
Sep 2
First Quarter
Sep 8
Full
Sep 15
Last Quarter
Sep 24
New

Today's Extremes

State Highs State Lows

Community

WunderPhotos

Upload Photos

1,749,513 photos uploaded!

Nearby

Snow Depth

Station Depth Elevation
Long Lake 0 in 820 ft
Upper Tsaina River 0 in 1750 ft
Grandview 25 in 1100 ft
Grouse Creek Divide 0 in 700 ft
Turnagain Pass 1 in 1880 ft

Earthquake Activity

City Distance Mag. Time & Date
No recent earthquake activity has been reported nearby.
Minimum magnitude displayed is 2.5.

Coastal Water Temperatures

Place Temperature
No Stations Reporting

Nearby Weather Stations